sensor_id;sensor_type;location;lat;lon;timestamp;P1;durP1;ratioP1;P2;durP2;ratioP2
33844;SDS011;20145;43.118;25.694;2023-05-10T00:01:01;8.68;;;6.60;;
33844;SDS011;20145;43.118;25.694;2023-05-10T00:03:26;9.65;;;7.47;;
33844;SDS011;20145;43.118;25.694;2023-05-10T00:05:52;8.68;;;6.78;;
33844;SDS011;20145;43.118;25.694;2023-05-10T00:08:17;10.13;;;6.65;;
33844;SDS011;20145;43.118;25.694;2023-05-10T00:10:43;16.52;;;6.65;;
33844;SDS011;20145;43.118;25.694;2023-05-10T00:13:08;7.68;;;6.88;;
33844;SDS011;20145;43.118;25.694;2023-05-10T00:15:34;9.27;;;7.57;;
33844;SDS011;20145;43.118;25.694;2023-05-10T00:18:00;7.55;;;6.68;;
33844;SDS011;20145;43.118;25.694;2023-05-10T00:20:25;9.40;;;7.07;;
33844;SDS011;20145;43.118;25.694;2023-05-10T00:22:51;11.55;;;6.72;;
33844;SDS011;20145;43.118;25.694;2023-05-10T00:25:17;10.80;;;7.80;;
33844;SDS011;20145;43.118;25.694;2023-05-10T00:27:42;10.45;;;7.07;;
33844;SDS011;20145;43.118;25.694;2023-05-10T00:30:08;10.02;;;7.32;;
33844;SDS011;20145;43.118;25.694;2023-05-10T00:32:34;9.77;;;7.07;;
33844;SDS011;20145;43.118;25.694;2023-05-10T00:34:59;13.43;;;7.28;;
33844;SDS011;20145;43.118;25.694;2023-05-10T00:37:25;10.85;;;7.22;;
33844;SDS011;20145;43.118;25.694;2023-05-10T00:39:50;11.35;;;7.97;;
33844;SDS011;20145;43.118;25.694;2023-05-10T00:42:16;10.88;;;7.75;;
33844;SDS011;20145;43.118;25.694;2023-05-10T00:44:42;11.55;;;8.00;;
33844;SDS011;20145;43.118;25.694;2023-05-10T00:47:07;12.48;;;8.50;;
33844;SDS011;20145;43.118;25.694;2023-05-10T00:49:34;13.43;;;8.80;;
33844;SDS011;20145;43.118;25.694;2023-05-10T00:52:00;8.57;;;7.57;;
33844;SDS011;20145;43.118;25.694;2023-05-10T00:54:27;8.82;;;7.93;;
33844;SDS011;20145;43.118;25.694;2023-05-10T00:56:52;8.77;;;7.78;;
33844;SDS011;20145;43.118;25.694;2023-05-10T00:59:18;11.45;;;8.07;;
33844;SDS011;20145;43.118;25.694;2023-05-10T01:01:45;12.00;;;7.57;;
33844;SDS011;20145;43.118;25.694;2023-05-10T01:04:14;10.68;;;8.05;;
33844;SDS011;20145;43.118;25.694;2023-05-10T01:06:40;14.43;;;9.48;;
33844;SDS011;20145;43.118;25.694;2023-05-10T01:09:07;12.88;;;7.68;;
33844;SDS011;20145;43.118;25.694;2023-05-10T01:11:34;9.10;;;7.60;;
33844;SDS011;20145;43.118;25.694;2023-05-10T01:14:00;13.90;;;9.32;;
33844;SDS011;20145;43.118;25.694;2023-05-10T01:16:27;14.55;;;8.05;;
33844;SDS011;20145;43.118;25.694;2023-05-10T01:18:55;10.80;;;8.18;;
33844;SDS011;20145;43.118;25.694;2023-05-10T01:21:36;10.98;;;7.55;;
33844;SDS011;20145;43.118;25.694;2023-05-10T01:30:15;9.50;;;7.82;;
33844;SDS011;20145;43.118;25.694;2023-05-10T01:35:30;12.00;;;7.85;;
33844;SDS011;20145;43.118;25.694;2023-05-10T01:40:38;10.07;;;8.00;;
33844;SDS011;20145;43.118;25.694;2023-05-10T01:43:11;12.90;;;7.68;;
33844;SDS011;20145;43.118;25.694;2023-05-10T01:45:50;10.07;;;7.80;;
33844;SDS011;20145;43.118;25.694;2023-05-10T01:48:26;9.43;;;7.82;;
33844;SDS011;20145;43.118;25.694;2023-05-10T01:50:53;11.25;;;8.25;;
33844;SDS011;20145;43.118;25.694;2023-05-10T01:53:21;14.13;;;8.63;;
33844;SDS011;20145;43.118;25.694;2023-05-10T01:55:49;12.50;;;8.25;;
33844;SDS011;20145;43.118;25.694;2023-05-10T01:58:27;13.43;;;8.20;;
33844;SDS011;20145;43.118;25.694;2023-05-10T02:00:55;20.60;;;8.45;;
33844;SDS011;20145;43.118;25.694;2023-05-10T02:03:24;9.43;;;7.82;;
33844;SDS011;20145;43.118;25.694;2023-05-10T02:05:53;13.75;;;8.48;;
33844;SDS011;20145;43.118;25.694;2023-05-10T02:08:21;11.13;;;7.95;;
33844;SDS011;20145;43.118;25.694;2023-05-10T02:10:49;12.68;;;8.20;;
33844;SDS011;20145;43.118;25.694;2023-05-10T02:13:16;14.57;;;8.27;;
33844;SDS011;20145;43.118;25.694;2023-05-10T02:15:43;10.07;;;7.78;;
33844;SDS011;20145;43.118;25.694;2023-05-10T02:18:13;10.35;;;7.95;;
33844;SDS011;20145;43.118;25.694;2023-05-10T02:20:40;10.38;;;7.68;;
33844;SDS011;20145;43.118;25.694;2023-05-10T02:23:08;12.40;;;7.63;;
33844;SDS011;20145;43.118;25.694;2023-05-10T02:25:34;15.48;;;8.00;;
33844;SDS011;20145;43.118;25.694;2023-05-10T02:28:03;10.93;;;8.30;;
33844;SDS011;20145;43.118;25.694;2023-05-10T02:30:31;11.10;;;7.63;;
33844;SDS011;20145;43.118;25.694;2023-05-10T02:32:58;15.23;;;9.02;;
33844;SDS011;20145;43.118;25.694;2023-05-10T02:35:25;17.35;;;8.43;;
33844;SDS011;20145;43.118;25.694;2023-05-10T02:37:52;12.25;;;8.27;;
33844;SDS011;20145;43.118;25.694;2023-05-10T02:40:19;10.20;;;7.38;;
33844;SDS011;20145;43.118;25.694;2023-05-10T02:42:48;11.10;;;8.45;;
33844;SDS011;20145;43.118;25.694;2023-05-10T02:45:19;12.30;;;8.40;;
33844;SDS011;20145;43.118;25.694;2023-05-10T02:47:47;16.63;;;8.63;;
33844;SDS011;20145;43.118;25.694;2023-05-10T02:50:13;13.20;;;9.40;;
33844;SDS011;20145;43.118;25.694;2023-05-10T02:52:41;12.55;;;8.75;;
33844;SDS011;20145;43.118;25.694;2023-05-10T02:55:11;11.98;;;9.40;;
33844;SDS011;20145;43.118;25.694;2023-05-10T02:57:46;11.35;;;9.15;;
33844;SDS011;20145;43.118;25.694;2023-05-10T03:00:17;16.80;;;9.95;;
33844;SDS011;20145;43.118;25.694;2023-05-10T03:02:43;10.13;;;9.10;;
33844;SDS011;20145;43.118;25.694;2023-05-10T03:05:09;13.45;;;9.38;;
33844;SDS011;20145;43.118;25.694;2023-05-10T03:07:34;14.73;;;8.90;;
33844;SDS011;20145;43.118;25.694;2023-05-10T03:10:01;10.10;;;8.65;;
33844;SDS011;20145;43.118;25.694;2023-05-10T03:15:31;14.35;;;8.57;;
33844;SDS011;20145;43.118;25.694;2023-05-10T03:18:09;14.40;;;8.38;;
33844;SDS011;20145;43.118;25.694;2023-05-10T03:20:43;16.55;;;8.23;;
33844;SDS011;20145;43.118;25.694;2023-05-10T03:23:17;14.45;;;10.30;;
33844;SDS011;20145;43.118;25.694;2023-05-10T03:25:46;12.20;;;9.20;;
33844;SDS011;20145;43.118;25.694;2023-05-10T03:28:13;9.07;;;8.18;;
33844;SDS011;20145;43.118;25.694;2023-05-10T03:30:40;13.98;;;6.68;;
33844;SDS011;20145;43.118;25.694;2023-05-10T03:33:07;8.25;;;6.93;;
33844;SDS011;20145;43.118;25.694;2023-05-10T03:35:33;16.08;;;9.57;;
33844;SDS011;20145;43.118;25.694;2023-05-10T03:37:59;10.38;;;6.45;;
33844;SDS011;20145;43.118;25.694;2023-05-10T03:40:25;9.43;;;6.70;;
33844;SDS011;20145;43.118;25.694;2023-05-10T03:42:54;9.95;;;6.10;;
33844;SDS011;20145;43.118;25.694;2023-05-10T03:45:20;13.57;;;6.32;;
33844;SDS011;20145;43.118;25.694;2023-05-10T03:47:45;14.00;;;5.88;;
33844;SDS011;20145;43.118;25.694;2023-05-10T03:50:11;6.72;;;5.50;;
33844;SDS011;20145;43.118;25.694;2023-05-10T03:52:37;13.40;;;6.00;;
33844;SDS011;20145;43.118;25.694;2023-05-10T03:55:04;17.52;;;6.82;;
33844;SDS011;20145;43.118;25.694;2023-05-10T03:57:30;10.30;;;6.75;;
33844;SDS011;20145;43.118;25.694;2023-05-10T03:59:56;16.92;;;6.70;;
33844;SDS011;20145;43.118;25.694;2023-05-10T04:02:21;11.95;;;6.20;;
33844;SDS011;20145;43.118;25.694;2023-05-10T04:04:47;9.55;;;5.43;;
33844;SDS011;20145;43.118;25.694;2023-05-10T04:07:13;8.05;;;5.07;;
33844;SDS011;20145;43.118;25.694;2023-05-10T04:09:39;13.27;;;10.80;;
33844;SDS011;20145;43.118;25.694;2023-05-10T04:12:05;17.10;;;6.80;;
33844;SDS011;20145;43.118;25.694;2023-05-10T04:14:31;15.57;;;6.35;;
33844;SDS011;20145;43.118;25.694;2023-05-10T04:16:57;13.75;;;5.80;;
33844;SDS011;20145;43.118;25.694;2023-05-10T04:19:22;8.10;;;5.10;;
33844;SDS011;20145;43.118;25.694;2023-05-10T04:21:48;7.68;;;4.80;;
33844;SDS011;20145;43.118;25.694;2023-05-10T04:24:14;9.27;;;5.63;;
33844;SDS011;20145;43.118;25.694;2023-05-10T04:26:40;9.85;;;4.93;;
33844;SDS011;20145;43.118;25.694;2023-05-10T04:29:05;6.07;;;5.47;;
33844;SDS011;20145;43.118;25.694;2023-05-10T04:31:31;9.40;;;5.15;;
33844;SDS011;20145;43.118;25.694;2023-05-10T04:33:57;5.53;;;4.90;;
33844;SDS011;20145;43.118;25.694;2023-05-10T04:36:23;8.27;;;5.35;;
33844;SDS011;20145;43.118;25.694;2023-05-10T04:38:48;8.68;;;5.72;;
33844;SDS011;20145;43.118;25.694;2023-05-10T04:41:14;9.27;;;6.45;;
33844;SDS011;20145;43.118;25.694;2023-05-10T04:43:39;6.53;;;5.70;;
33844;SDS011;20145;43.118;25.694;2023-05-10T04:46:05;10.35;;;4.70;;
33844;SDS011;20145;43.118;25.694;2023-05-10T04:48:32;7.22;;;4.95;;
33844;SDS011;20145;43.118;25.694;2023-05-10T04:50:57;9.80;;;5.57;;
33844;SDS011;20145;43.118;25.694;2023-05-10T04:53:23;11.52;;;5.40;;
33844;SDS011;20145;43.118;25.694;2023-05-10T04:55:49;7.57;;;4.88;;
33844;SDS011;20145;43.118;25.694;2023-05-10T04:58:14;8.80;;;4.60;;
33844;SDS011;20145;43.118;25.694;2023-05-10T05:00:40;12.05;;;5.28;;
33844;SDS011;20145;43.118;25.694;2023-05-10T05:03:05;5.63;;;5.05;;
33844;SDS011;20145;43.118;25.694;2023-05-10T05:05:31;9.68;;;4.85;;
33844;SDS011;20145;43.118;25.694;2023-05-10T05:07:56;7.15;;;5.15;;
33844;SDS011;20145;43.118;25.694;2023-05-10T05:10:22;11.27;;;4.90;;
33844;SDS011;20145;43.118;25.694;2023-05-10T05:12:47;8.32;;;5.10;;
33844;SDS011;20145;43.118;25.694;2023-05-10T05:15:13;7.78;;;5.00;;
33844;SDS011;20145;43.118;25.694;2023-05-10T05:17:40;8.70;;;5.47;;
33844;SDS011;20145;43.118;25.694;2023-05-10T05:20:06;5.60;;;4.80;;
33844;SDS011;20145;43.118;25.694;2023-05-10T05:22:32;5.70;;;4.72;;
33844;SDS011;20145;43.118;25.694;2023-05-10T05:24:57;8.43;;;4.53;;
33844;SDS011;20145;43.118;25.694;2023-05-10T05:27:23;7.15;;;5.30;;
33844;SDS011;20145;43.118;25.694;2023-05-10T05:29:53;7.38;;;4.70;;
33844;SDS011;20145;43.118;25.694;2023-05-10T05:32:20;9.85;;;5.03;;
33844;SDS011;20145;43.118;25.694;2023-05-10T05:34:45;7.88;;;5.80;;
33844;SDS011;20145;43.118;25.694;2023-05-10T05:37:14;7.18;;;5.90;;
33844;SDS011;20145;43.118;25.694;2023-05-10T05:39:40;7.30;;;5.25;;
33844;SDS011;20145;43.118;25.694;2023-05-10T05:42:07;6.00;;;4.40;;
33844;SDS011;20145;43.118;25.694;2023-05-10T05:44:34;8.85;;;5.63;;
33844;SDS011;20145;43.118;25.694;2023-05-10T05:46:59;8.88;;;5.25;;
33844;SDS011;20145;43.118;25.694;2023-05-10T05:49:25;9.75;;;5.78;;
33844;SDS011;20145;43.118;25.694;2023-05-10T05:51:50;9.35;;;6.38;;
33844;SDS011;20145;43.118;25.694;2023-05-10T05:54:16;12.27;;;6.20;;
33844;SDS011;20145;43.118;25.694;2023-05-10T05:56:41;8.13;;;6.38;;
33844;SDS011;20145;43.118;25.694;2023-05-10T05:59:07;8.65;;;5.93;;
33844;SDS011;20145;43.118;25.694;2023-05-10T06:01:33;9.82;;;6.05;;
33844;SDS011;20145;43.118;25.694;2023-05-10T06:03:58;9.18;;;4.95;;
33844;SDS011;20145;43.118;25.694;2023-05-10T06:06:24;5.82;;;5.32;;
33844;SDS011;20145;43.118;25.694;2023-05-10T06:08:50;6.40;;;5.20;;
33844;SDS011;20145;43.118;25.694;2023-05-10T06:11:17;6.00;;;4.93;;
33844;SDS011;20145;43.118;25.694;2023-05-10T06:13:43;10.95;;;5.38;;
33844;SDS011;20145;43.118;25.694;2023-05-10T06:16:08;5.82;;;4.80;;
33844;SDS011;20145;43.118;25.694;2023-05-10T06:18:34;6.72;;;5.10;;
33844;SDS011;20145;43.118;25.694;2023-05-10T06:20:59;5.43;;;4.88;;
33844;SDS011;20145;43.118;25.694;2023-05-10T06:23:25;5.10;;;4.07;;
33844;SDS011;20145;43.118;25.694;2023-05-10T06:25:51;8.80;;;4.85;;
33844;SDS011;20145;43.118;25.694;2023-05-10T06:28:17;5.65;;;4.40;;
33844;SDS011;20145;43.118;25.694;2023-05-10T06:30:43;7.05;;;4.18;;
33844;SDS011;20145;43.118;25.694;2023-05-10T06:33:08;4.28;;;3.95;;
33844;SDS011;20145;43.118;25.694;2023-05-10T06:35:34;8.82;;;4.85;;
33844;SDS011;20145;43.118;25.694;2023-05-10T06:37:59;4.70;;;3.88;;
33844;SDS011;20145;43.118;25.694;2023-05-10T06:40:25;8.65;;;3.90;;
33844;SDS011;20145;43.118;25.694;2023-05-10T06:42:51;4.30;;;3.72;;
33844;SDS011;20145;43.118;25.694;2023-05-10T06:45:16;5.68;;;3.95;;
33844;SDS011;20145;43.118;25.694;2023-05-10T06:47:42;14.23;;;3.60;;
33844;SDS011;20145;43.118;25.694;2023-05-10T06:50:08;5.78;;;2.95;;
33844;SDS011;20145;43.118;25.694;2023-05-10T06:52:34;4.55;;;4.00;;
33844;SDS011;20145;43.118;25.694;2023-05-10T06:55:00;4.50;;;3.60;;
33844;SDS011;20145;43.118;25.694;2023-05-10T06:57:26;7.50;;;4.22;;
33844;SDS011;20145;43.118;25.694;2023-05-10T06:59:51;5.38;;;3.42;;
33844;SDS011;20145;43.118;25.694;2023-05-10T07:02:17;3.63;;;3.33;;
33844;SDS011;20145;43.118;25.694;2023-05-10T07:04:43;4.45;;;3.22;;
33844;SDS011;20145;43.118;25.694;2023-05-10T07:07:08;3.28;;;2.97;;
33844;SDS011;20145;43.118;25.694;2023-05-10T07:09:34;5.35;;;3.40;;
33844;SDS011;20145;43.118;25.694;2023-05-10T07:11:59;4.90;;;3.40;;
33844;SDS011;20145;43.118;25.694;2023-05-10T07:14:26;4.57;;;3.40;;
33844;SDS011;20145;43.118;25.694;2023-05-10T07:16:52;3.35;;;3.05;;
33844;SDS011;20145;43.118;25.694;2023-05-10T07:19:18;6.43;;;3.30;;
33844;SDS011;20145;43.118;25.694;2023-05-10T07:21:44;5.28;;;3.53;;
33844;SDS011;20145;43.118;25.694;2023-05-10T07:24:10;7.55;;;3.42;;
33844;SDS011;20145;43.118;25.694;2023-05-10T07:26:36;4.78;;;2.97;;
33844;SDS011;20145;43.118;25.694;2023-05-10T07:29:02;5.32;;;2.90;;
33844;SDS011;20145;43.118;25.694;2023-05-10T07:31:27;3.72;;;2.83;;
33844;SDS011;20145;43.118;25.694;2023-05-10T07:33:53;4.88;;;2.88;;
33844;SDS011;20145;43.118;25.694;2023-05-10T07:36:19;3.58;;;3.28;;
33844;SDS011;20145;43.118;25.694;2023-05-10T07:38:45;3.15;;;2.90;;
33844;SDS011;20145;43.118;25.694;2023-05-10T07:41:11;3.30;;;3.00;;
33844;SDS011;20145;43.118;25.694;2023-05-10T07:43:37;5.65;;;2.72;;
33844;SDS011;20145;43.118;25.694;2023-05-10T07:46:03;9.93;;;3.25;;
33844;SDS011;20145;43.118;25.694;2023-05-10T07:48:28;3.22;;;2.65;;
33844;SDS011;20145;43.118;25.694;2023-05-10T07:50:54;4.28;;;2.70;;
33844;SDS011;20145;43.118;25.694;2023-05-10T07:53:19;3.58;;;3.13;;
33844;SDS011;20145;43.118;25.694;2023-05-10T07:55:57;5.88;;;3.05;;
33844;SDS011;20145;43.118;25.694;2023-05-10T07:58:24;3.42;;;2.42;;
33844;SDS011;20145;43.118;25.694;2023-05-10T08:00:50;5.03;;;2.15;;
33844;SDS011;20145;43.118;25.694;2023-05-10T08:03:15;9.15;;;2.90;;
33844;SDS011;20145;43.118;25.694;2023-05-10T08:05:41;3.63;;;3.00;;
33844;SDS011;20145;43.118;25.694;2023-05-10T08:08:06;3.03;;;2.60;;
33844;SDS011;20145;43.118;25.694;2023-05-10T08:10:32;2.70;;;2.50;;
33844;SDS011;20145;43.118;25.694;2023-05-10T08:12:58;4.72;;;2.83;;
33844;SDS011;20145;43.118;25.694;2023-05-10T08:15:24;6.07;;;2.80;;
33844;SDS011;20145;43.118;25.694;2023-05-10T08:17:51;5.55;;;3.17;;
33844;SDS011;20145;43.118;25.694;2023-05-10T08:20:17;4.00;;;2.45;;
33844;SDS011;20145;43.118;25.694;2023-05-10T08:22:46;3.92;;;2.88;;
33844;SDS011;20145;43.118;25.694;2023-05-10T08:25:12;3.97;;;2.40;;
33844;SDS011;20145;43.118;25.694;2023-05-10T08:27:37;2.70;;;2.50;;
33844;SDS011;20145;43.118;25.694;2023-05-10T08:30:03;4.05;;;2.72;;
33844;SDS011;20145;43.118;25.694;2023-05-10T08:32:29;11.18;;;2.90;;
33844;SDS011;20145;43.118;25.694;2023-05-10T08:34:55;3.47;;;3.17;;
33844;SDS011;20145;43.118;25.694;2023-05-10T08:37:21;6.95;;;2.47;;
33844;SDS011;20145;43.118;25.694;2023-05-10T08:39:47;3.63;;;3.05;;
33844;SDS011;20145;43.118;25.694;2023-05-10T08:42:13;4.47;;;2.53;;
33844;SDS011;20145;43.118;25.694;2023-05-10T08:44:44;3.00;;;2.75;;
33844;SDS011;20145;43.118;25.694;2023-05-10T08:47:13;4.22;;;2.72;;
33844;SDS011;20145;43.118;25.694;2023-05-10T08:49:41;2.70;;;2.50;;
33844;SDS011;20145;43.118;25.694;2023-05-10T08:52:08;6.60;;;3.08;;
33844;SDS011;20145;43.118;25.694;2023-05-10T08:54:38;3.10;;;2.80;;
33844;SDS011;20145;43.118;25.694;2023-05-10T08:57:04;4.38;;;2.70;;
33844;SDS011;20145;43.118;25.694;2023-05-10T08:59:30;4.32;;;3.00;;
33844;SDS011;20145;43.118;25.694;2023-05-10T09:01:57;3.78;;;3.00;;
33844;SDS011;20145;43.118;25.694;2023-05-10T09:04:23;4.93;;;2.50;;
33844;SDS011;20145;43.118;25.694;2023-05-10T09:06:49;4.10;;;2.70;;
33844;SDS011;20145;43.118;25.694;2023-05-10T09:09:15;2.78;;;2.30;;
33844;SDS011;20145;43.118;25.694;2023-05-10T09:11:42;4.70;;;3.30;;
33844;SDS011;20145;43.118;25.694;2023-05-10T09:14:09;5.22;;;3.08;;
33844;SDS011;20145;43.118;25.694;2023-05-10T09:16:37;4.00;;;2.80;;
33844;SDS011;20145;43.118;25.694;2023-05-10T09:19:03;2.50;;;2.30;;
33844;SDS011;20145;43.118;25.694;2023-05-10T09:21:28;3.78;;;2.78;;
33844;SDS011;20145;43.118;25.694;2023-05-10T09:23:56;2.92;;;2.60;;
33844;SDS011;20145;43.118;25.694;2023-05-10T09:26:22;2.80;;;2.60;;
33844;SDS011;20145;43.118;25.694;2023-05-10T09:28:53;4.90;;;2.35;;
33844;SDS011;20145;43.118;25.694;2023-05-10T09:31:21;7.22;;;2.60;;
33844;SDS011;20145;43.118;25.694;2023-05-10T09:33:47;3.00;;;2.70;;
33844;SDS011;20145;43.118;25.694;2023-05-10T09:36:13;4.07;;;2.90;;
33844;SDS011;20145;43.118;25.694;2023-05-10T09:38:51;4.88;;;2.60;;
33844;SDS011;20145;43.118;25.694;2023-05-10T09:41:23;5.35;;;2.67;;
33844;SDS011;20145;43.118;25.694;2023-05-10T09:43:50;4.47;;;2.60;;
33844;SDS011;20145;43.118;25.694;2023-05-10T09:46:21;6.60;;;3.20;;
33844;SDS011;20145;43.118;25.694;2023-05-10T09:48:47;3.10;;;2.63;;
33844;SDS011;20145;43.118;25.694;2023-05-10T09:51:20;3.67;;;2.63;;
33844;SDS011;20145;43.118;25.694;2023-05-10T09:53:46;4.65;;;2.58;;
33844;SDS011;20145;43.118;25.694;2023-05-10T09:56:12;5.28;;;2.33;;
33844;SDS011;20145;43.118;25.694;2023-05-10T09:58:38;4.50;;;2.67;;
33844;SDS011;20145;43.118;25.694;2023-05-10T10:01:04;5.22;;;2.63;;
33844;SDS011;20145;43.118;25.694;2023-05-10T10:03:29;4.32;;;2.30;;
33844;SDS011;20145;43.118;25.694;2023-05-10T10:05:55;3.13;;;2.33;;
33844;SDS011;20145;43.118;25.694;2023-05-10T10:08:21;4.40;;;2.63;;
33844;SDS011;20145;43.118;25.694;2023-05-10T10:10:47;7.78;;;2.67;;
33844;SDS011;20145;43.118;25.694;2023-05-10T10:13:13;4.10;;;2.65;;
33844;SDS011;20145;43.118;25.694;2023-05-10T10:15:42;5.18;;;2.50;;
33844;SDS011;20145;43.118;25.694;2023-05-10T10:18:12;5.40;;;2.58;;
33844;SDS011;20145;43.118;25.694;2023-05-10T10:20:39;2.78;;;2.50;;
33844;SDS011;20145;43.118;25.694;2023-05-10T10:23:05;6.30;;;2.67;;
33844;SDS011;20145;43.118;25.694;2023-05-10T10:25:30;4.40;;;2.60;;
33844;SDS011;20145;43.118;25.694;2023-05-10T10:28:07;4.40;;;2.40;;
33844;SDS011;20145;43.118;25.694;2023-05-10T10:30:42;6.35;;;3.47;;
33844;SDS011;20145;43.118;25.694;2023-05-10T10:35:55;3.25;;;2.30;;
33844;SDS011;20145;43.118;25.694;2023-05-10T10:38:35;4.80;;;3.40;;
33844;SDS011;20145;43.118;25.694;2023-05-10T10:41:08;2.85;;;2.55;;
33844;SDS011;20145;43.118;25.694;2023-05-10T10:43:36;5.25;;;2.70;;
33844;SDS011;20145;43.118;25.694;2023-05-10T10:48:47;3.65;;;2.38;;
33844;SDS011;20145;43.118;25.694;2023-05-10T10:51:13;3.03;;;2.20;;
33844;SDS011;20145;43.118;25.694;2023-05-10T10:53:40;3.67;;;2.63;;
33844;SDS011;20145;43.118;25.694;2023-05-10T10:56:09;4.00;;;2.38;;
33844;SDS011;20145;43.118;25.694;2023-05-10T10:58:38;4.00;;;2.45;;
33844;SDS011;20145;43.118;25.694;2023-05-10T11:01:14;4.90;;;2.00;;
33844;SDS011;20145;43.118;25.694;2023-05-10T11:03:41;5.63;;;2.22;;
33844;SDS011;20145;43.118;25.694;2023-05-10T11:06:39;2.40;;;2.20;;
33844;SDS011;20145;43.118;25.694;2023-05-10T11:09:06;3.50;;;2.25;;
33844;SDS011;20145;43.118;25.694;2023-05-10T11:11:34;2.38;;;2.17;;
33844;SDS011;20145;43.118;25.694;2023-05-10T11:14:04;5.53;;;2.40;;
33844;SDS011;20145;43.118;25.694;2023-05-10T11:16:41;3.60;;;2.28;;
33844;SDS011;20145;43.118;25.694;2023-05-10T11:19:08;2.90;;;2.28;;
33844;SDS011;20145;43.118;25.694;2023-05-10T11:22:11;2.67;;;1.98;;
33844;SDS011;20145;43.118;25.694;2023-05-10T11:24:55;3.40;;;2.00;;
33844;SDS011;20145;43.118;25.694;2023-05-10T11:27:21;5.00;;;2.67;;
33844;SDS011;20145;43.118;25.694;2023-05-10T11:29:50;4.70;;;1.95;;
33844;SDS011;20145;43.118;25.694;2023-05-10T11:32:16;1.95;;;1.75;;
33844;SDS011;20145;43.118;25.694;2023-05-10T11:34:42;3.88;;;2.05;;
33844;SDS011;20145;43.118;25.694;2023-05-10T11:37:13;2.78;;;2.33;;
33844;SDS011;20145;43.118;25.694;2023-05-10T11:39:38;4.60;;;2.15;;
33844;SDS011;20145;43.118;25.694;2023-05-10T11:42:11;4.55;;;2.30;;
33844;SDS011;20145;43.118;25.694;2023-05-10T11:44:37;2.10;;;1.90;;
33844;SDS011;20145;43.118;25.694;2023-05-10T11:47:02;2.72;;;2.10;;
33844;SDS011;20145;43.118;25.694;2023-05-10T11:49:28;1.95;;;1.60;;
33844;SDS011;20145;43.118;25.694;2023-05-10T11:52:03;5.00;;;2.03;;
33844;SDS011;20145;43.118;25.694;2023-05-10T11:54:31;2.53;;;2.10;;
33844;SDS011;20145;43.118;25.694;2023-05-10T11:56:58;4.80;;;1.50;;
33844;SDS011;20145;43.118;25.694;2023-05-10T11:59:25;3.13;;;1.70;;
33844;SDS011;20145;43.118;25.694;2023-05-10T12:01:50;3.13;;;1.88;;
33844;SDS011;20145;43.118;25.694;2023-05-10T12:04:16;5.25;;;1.73;;
33844;SDS011;20145;43.118;25.694;2023-05-10T12:06:42;1.63;;;1.40;;
33844;SDS011;20145;43.118;25.694;2023-05-10T12:09:08;2.50;;;1.63;;
33844;SDS011;20145;43.118;25.694;2023-05-10T12:11:36;3.97;;;1.52;;
33844;SDS011;20145;43.118;25.694;2023-05-10T12:14:04;7.72;;;2.33;;
33844;SDS011;20145;43.118;25.694;2023-05-10T12:16:30;3.20;;;1.45;;
33844;SDS011;20145;43.118;25.694;2023-05-10T12:18:57;4.22;;;1.70;;
33844;SDS011;20145;43.118;25.694;2023-05-10T12:21:24;3.92;;;1.70;;
33844;SDS011;20145;43.118;25.694;2023-05-10T12:23:52;3.70;;;1.73;;
33844;SDS011;20145;43.118;25.694;2023-05-10T12:26:23;3.80;;;1.60;;
33844;SDS011;20145;43.118;25.694;2023-05-10T12:28:52;2.15;;;1.85;;
33844;SDS011;20145;43.118;25.694;2023-05-10T12:31:18;3.40;;;2.22;;
33844;SDS011;20145;43.118;25.694;2023-05-10T12:33:44;11.18;;;2.80;;
33844;SDS011;20145;43.118;25.694;2023-05-10T12:36:12;5.53;;;2.28;;
33844;SDS011;20145;43.118;25.694;2023-05-10T12:38:40;2.97;;;1.55;;
33844;SDS011;20145;43.118;25.694;2023-05-10T12:41:10;2.45;;;2.25;;
33844;SDS011;20145;43.118;25.694;2023-05-10T12:43:36;3.15;;;1.88;;
33844;SDS011;20145;43.118;25.694;2023-05-10T12:46:09;3.28;;;1.58;;
33844;SDS011;20145;43.118;25.694;2023-05-10T12:48:36;2.30;;;1.90;;
33844;SDS011;20145;43.118;25.694;2023-05-10T12:51:03;4.18;;;1.98;;
33844;SDS011;20145;43.118;25.694;2023-05-10T12:53:30;4.65;;;1.83;;
33844;SDS011;20145;43.118;25.694;2023-05-10T12:55:56;2.28;;;2.00;;
33844;SDS011;20145;43.118;25.694;2023-05-10T12:58:22;2.83;;;2.00;;
33844;SDS011;20145;43.118;25.694;2023-05-10T13:00:48;3.08;;;1.73;;
33844;SDS011;20145;43.118;25.694;2023-05-10T13:03:13;3.03;;;2.05;;
33844;SDS011;20145;43.118;25.694;2023-05-10T13:05:40;2.22;;;1.90;;
33844;SDS011;20145;43.118;25.694;2023-05-10T13:08:06;3.35;;;2.00;;
33844;SDS011;20145;43.118;25.694;2023-05-10T13:10:31;2.78;;;1.90;;
33844;SDS011;20145;43.118;25.694;2023-05-10T13:12:58;3.17;;;1.95;;
33844;SDS011;20145;43.118;25.694;2023-05-10T13:15:24;3.55;;;2.10;;
33844;SDS011;20145;43.118;25.694;2023-05-10T13:17:49;1.95;;;1.60;;
33844;SDS011;20145;43.118;25.694;2023-05-10T13:20:15;13.05;;;2.47;;
33844;SDS011;20145;43.118;25.694;2023-05-10T13:22:42;2.33;;;1.90;;
33844;SDS011;20145;43.118;25.694;2023-05-10T13:25:08;3.97;;;1.98;;
33844;SDS011;20145;43.118;25.694;2023-05-10T13:27:34;1.77;;;1.63;;
33844;SDS011;20145;43.118;25.694;2023-05-10T13:30:00;2.70;;;1.90;;
33844;SDS011;20145;43.118;25.694;2023-05-10T13:32:28;1.73;;;1.63;;
33844;SDS011;20145;43.118;25.694;2023-05-10T13:34:54;2.15;;;1.80;;
33844;SDS011;20145;43.118;25.694;2023-05-10T13:37:20;1.73;;;1.58;;
33844;SDS011;20145;43.118;25.694;2023-05-10T13:39:46;1.73;;;1.63;;
33844;SDS011;20145;43.118;25.694;2023-05-10T13:42:12;1.60;;;1.50;;
33844;SDS011;20145;43.118;25.694;2023-05-10T13:44:37;5.72;;;2.10;;
33844;SDS011;20145;43.118;25.694;2023-05-10T13:47:04;2.70;;;1.85;;
33844;SDS011;20145;43.118;25.694;2023-05-10T13:49:30;2.88;;;2.10;;
33844;SDS011;20145;43.118;25.694;2023-05-10T13:51:55;9.70;;;2.47;;
33844;SDS011;20145;43.118;25.694;2023-05-10T13:54:21;2.95;;;1.73;;
33844;SDS011;20145;43.118;25.694;2023-05-10T13:56:47;2.95;;;2.10;;
33844;SDS011;20145;43.118;25.694;2023-05-10T13:59:13;7.03;;;1.98;;
33844;SDS011;20145;43.118;25.694;2023-05-10T14:01:39;3.15;;;1.85;;
33844;SDS011;20145;43.118;25.694;2023-05-10T14:04:06;2.20;;;1.42;;
33844;SDS011;20145;43.118;25.694;2023-05-10T14:06:35;5.30;;;2.30;;
33844;SDS011;20145;43.118;25.694;2023-05-10T14:09:01;2.70;;;2.00;;
33844;SDS011;20145;43.118;25.694;2023-05-10T14:11:28;5.13;;;2.45;;
33844;SDS011;20145;43.118;25.694;2023-05-10T14:13:53;3.45;;;1.73;;
33844;SDS011;20145;43.118;25.694;2023-05-10T14:16:19;2.70;;;1.90;;
33844;SDS011;20145;43.118;25.694;2023-05-10T14:18:45;2.53;;;1.75;;
33844;SDS011;20145;43.118;25.694;2023-05-10T14:21:11;1.88;;;1.75;;
33844;SDS011;20145;43.118;25.694;2023-05-10T14:23:37;7.28;;;2.35;;
33844;SDS011;20145;43.118;25.694;2023-05-10T14:26:03;2.33;;;1.80;;
33844;SDS011;20145;43.118;25.694;2023-05-10T14:28:29;3.92;;;1.90;;
33844;SDS011;20145;43.118;25.694;2023-05-10T14:30:54;4.68;;;2.25;;
33844;SDS011;20145;43.118;25.694;2023-05-10T14:33:20;4.65;;;1.80;;
33844;SDS011;20145;43.118;25.694;2023-05-10T14:35:46;1.75;;;1.65;;
33844;SDS011;20145;43.118;25.694;2023-05-10T14:38:12;8.68;;;2.38;;
33844;SDS011;20145;43.118;25.694;2023-05-10T14:40:38;2.50;;;1.85;;
33844;SDS011;20145;43.118;25.694;2023-05-10T14:43:03;2.85;;;1.98;;
33844;SDS011;20145;43.118;25.694;2023-05-10T14:45:29;4.82;;;2.08;;
33844;SDS011;20145;43.118;25.694;2023-05-10T14:47:55;2.58;;;1.80;;
33844;SDS011;20145;43.118;25.694;2023-05-10T14:50:20;3.40;;;1.83;;